sensor_id;sensor_type;location;lat;lon;timestamp;P1;durP1;ratioP1;P2;durP2;ratioP2
44110;SDS011;29774;52.664;5.074;2022-10-04T00:03:07;7.63;;;4.00;;
44110;SDS011;29774;52.664;5.074;2022-10-04T00:05:35;6.15;;;3.83;;
44110;SDS011;29774;52.664;5.074;2022-10-04T00:08:11;8.55;;;4.13;;
44110;SDS011;29774;52.664;5.074;2022-10-04T00:11:00;7.40;;;4.50;;
44110;SDS011;29774;52.664;5.074;2022-10-04T00:13:36;9.55;;;4.10;;
44110;SDS011;29774;52.664;5.074;2022-10-04T00:16:03;6.82;;;3.35;;
44110;SDS011;29774;52.664;5.074;2022-10-04T00:18:40;10.10;;;4.35;;
44110;SDS011;29774;52.664;5.074;2022-10-04T00:21:09;8.13;;;3.80;;
44110;SDS011;29774;52.664;5.074;2022-10-04T00:26:00;10.73;;;4.30;;
44110;SDS011;29774;52.664;5.074;2022-10-04T00:33:57;9.52;;;4.65;;
44110;SDS011;29774;52.664;5.074;2022-10-04T00:36:40;14.00;;;4.80;;
44110;SDS011;29774;52.664;5.074;2022-10-04T00:49:46;6.68;;;4.70;;
44110;SDS011;29774;52.664;5.074;2022-10-04T00:52:19;9.50;;;4.93;;
44110;SDS011;29774;52.664;5.074;2022-10-04T00:54:50;9.18;;;4.43;;
44110;SDS011;29774;52.664;5.074;2022-10-04T00:57:24;8.80;;;4.70;;
44110;SDS011;29774;52.664;5.074;2022-10-04T01:00:05;7.25;;;4.07;;
44110;SDS011;29774;52.664;5.074;2022-10-04T01:05:16;6.88;;;4.13;;
44110;SDS011;29774;52.664;5.074;2022-10-04T01:08:15;9.75;;;4.53;;
44110;SDS011;29774;52.664;5.074;2022-10-04T01:10:57;8.05;;;4.40;;
44110;SDS011;29774;52.664;5.074;2022-10-04T01:13:30;10.57;;;4.60;;
44110;SDS011;29774;52.664;5.074;2022-10-04T01:18:38;10.10;;;4.18;;
44110;SDS011;29774;52.664;5.074;2022-10-04T01:23:45;6.22;;;4.00;;
44110;SDS011;29774;52.664;5.074;2022-10-04T01:28:53;8.27;;;4.78;;
44110;SDS011;29774;52.664;5.074;2022-10-04T01:31:26;9.10;;;4.22;;
44110;SDS011;29774;52.664;5.074;2022-10-04T01:33:53;7.53;;;4.72;;
44110;SDS011;29774;52.664;5.074;2022-10-04T01:36:19;11.27;;;4.57;;
44110;SDS011;29774;52.664;5.074;2022-10-04T01:38:45;6.57;;;4.35;;
44110;SDS011;29774;52.664;5.074;2022-10-04T01:41:12;9.18;;;3.90;;
44110;SDS011;29774;52.664;5.074;2022-10-04T01:43:41;8.63;;;4.43;;
44110;SDS011;29774;52.664;5.074;2022-10-04T01:46:12;7.65;;;3.88;;
44110;SDS011;29774;52.664;5.074;2022-10-04T01:48:49;10.20;;;4.63;;
44110;SDS011;29774;52.664;5.074;2022-10-04T01:51:26;10.98;;;4.53;;
44110;SDS011;29774;52.664;5.074;2022-10-04T01:53:57;9.63;;;4.78;;
44110;SDS011;29774;52.664;5.074;2022-10-04T01:59:43;7.03;;;4.43;;
44110;SDS011;29774;52.664;5.074;2022-10-04T02:02:36;8.65;;;4.40;;
44110;SDS011;29774;52.664;5.074;2022-10-04T02:05:04;5.80;;;3.95;;
44110;SDS011;29774;52.664;5.074;2022-10-04T02:07:34;10.38;;;4.32;;
44110;SDS011;29774;52.664;5.074;2022-10-04T02:10:03;8.00;;;4.40;;
44110;SDS011;29774;52.664;5.074;2022-10-04T02:12:34;9.68;;;4.75;;
44110;SDS011;29774;52.664;5.074;2022-10-04T02:15:02;8.15;;;4.45;;
44110;SDS011;29774;52.664;5.074;2022-10-04T02:17:32;7.13;;;5.15;;
44110;SDS011;29774;52.664;5.074;2022-10-04T02:20:07;7.07;;;4.63;;
44110;SDS011;29774;52.664;5.074;2022-10-04T02:22:41;8.85;;;5.00;;
44110;SDS011;29774;52.664;5.074;2022-10-04T02:25:09;7.85;;;4.75;;
44110;SDS011;29774;52.664;5.074;2022-10-04T02:27:37;8.48;;;4.65;;
44110;SDS011;29774;52.664;5.074;2022-10-04T02:30:04;8.27;;;4.45;;
44110;SDS011;29774;52.664;5.074;2022-10-04T02:32:32;7.88;;;5.10;;
44110;SDS011;29774;52.664;5.074;2022-10-04T02:35:16;7.95;;;5.20;;
44110;SDS011;29774;52.664;5.074;2022-10-04T02:37:43;8.65;;;5.30;;
44110;SDS011;29774;52.664;5.074;2022-10-04T02:40:14;12.73;;;5.50;;
44110;SDS011;29774;52.664;5.074;2022-10-04T02:42:45;7.53;;;4.85;;
44110;SDS011;29774;52.664;5.074;2022-10-04T02:45:23;6.07;;;4.13;;
44110;SDS011;29774;52.664;5.074;2022-10-04T02:48:04;6.85;;;4.32;;
44110;SDS011;29774;52.664;5.074;2022-10-04T02:50:59;9.88;;;4.78;;
44110;SDS011;29774;52.664;5.074;2022-10-04T02:56:09;11.57;;;5.70;;
44110;SDS011;29774;52.664;5.074;2022-10-04T02:58:36;8.48;;;4.68;;
44110;SDS011;29774;52.664;5.074;2022-10-04T03:01:04;8.07;;;5.53;;
44110;SDS011;29774;52.664;5.074;2022-10-04T03:03:33;10.35;;;5.40;;
44110;SDS011;29774;52.664;5.074;2022-10-04T03:11:15;10.13;;;5.75;;
44110;SDS011;29774;52.664;5.074;2022-10-04T03:13:45;9.93;;;5.75;;
44110;SDS011;29774;52.664;5.074;2022-10-04T03:16:13;10.30;;;5.95;;
44110;SDS011;29774;52.664;5.074;2022-10-04T03:18:40;8.45;;;5.00;;
44110;SDS011;29774;52.664;5.074;2022-10-04T03:21:07;7.28;;;4.53;;
44110;SDS011;29774;52.664;5.074;2022-10-04T03:23:35;7.50;;;5.88;;
44110;SDS011;29774;52.664;5.074;2022-10-04T03:26:09;10.55;;;5.25;;
44110;SDS011;29774;52.664;5.074;2022-10-04T03:28:46;5.38;;;4.05;;
44110;SDS011;29774;52.664;5.074;2022-10-04T03:31:12;8.00;;;5.68;;
44110;SDS011;29774;52.664;5.074;2022-10-04T03:33:39;8.27;;;5.22;;
44110;SDS011;29774;52.664;5.074;2022-10-04T03:36:10;8.82;;;5.72;;
44110;SDS011;29774;52.664;5.074;2022-10-04T03:38:38;10.43;;;6.05;;
44110;SDS011;29774;52.664;5.074;2022-10-04T03:41:04;8.10;;;4.82;;
44110;SDS011;29774;52.664;5.074;2022-10-04T03:43:31;10.98;;;6.05;;
44110;SDS011;29774;52.664;5.074;2022-10-04T03:46:02;10.55;;;6.72;;
44110;SDS011;29774;52.664;5.074;2022-10-04T03:48:30;9.73;;;6.07;;
44110;SDS011;29774;52.664;5.074;2022-10-04T03:51:00;10.75;;;6.55;;
44110;SDS011;29774;52.664;5.074;2022-10-04T03:53:33;9.95;;;6.50;;
44110;SDS011;29774;52.664;5.074;2022-10-04T03:56:24;11.98;;;5.82;;
44110;SDS011;29774;52.664;5.074;2022-10-04T03:58:52;8.00;;;6.65;;
44110;SDS011;29774;52.664;5.074;2022-10-04T04:01:21;10.85;;;5.97;;
44110;SDS011;29774;52.664;5.074;2022-10-04T04:06:46;12.65;;;6.40;;
44110;SDS011;29774;52.664;5.074;2022-10-04T04:09:18;9.95;;;5.93;;
44110;SDS011;29774;52.664;5.074;2022-10-04T04:11:50;7.93;;;5.70;;
44110;SDS011;29774;52.664;5.074;2022-10-04T04:14:23;9.35;;;6.13;;
44110;SDS011;29774;52.664;5.074;2022-10-04T04:16:52;9.35;;;6.57;;
44110;SDS011;29774;52.664;5.074;2022-10-04T04:19:21;9.40;;;6.30;;
44110;SDS011;29774;52.664;5.074;2022-10-04T04:21:49;10.38;;;7.28;;
44110;SDS011;29774;52.664;5.074;2022-10-04T04:24:18;10.55;;;5.82;;
44110;SDS011;29774;52.664;5.074;2022-10-04T04:26:49;10.70;;;6.03;;
44110;SDS011;29774;52.664;5.074;2022-10-04T04:32:03;13.32;;;6.50;;
44110;SDS011;29774;52.664;5.074;2022-10-04T04:34:47;9.18;;;6.10;;
44110;SDS011;29774;52.664;5.074;2022-10-04T04:37:17;9.82;;;6.05;;
44110;SDS011;29774;52.664;5.074;2022-10-04T04:39:43;8.15;;;6.07;;
44110;SDS011;29774;52.664;5.074;2022-10-04T04:44:51;9.88;;;5.88;;
44110;SDS011;29774;52.664;5.074;2022-10-04T04:47:31;11.68;;;6.28;;
44110;SDS011;29774;52.664;5.074;2022-10-04T04:50:06;11.95;;;6.80;;
44110;SDS011;29774;52.664;5.074;2022-10-04T04:52:35;11.40;;;6.90;;
44110;SDS011;29774;52.664;5.074;2022-10-04T04:55:02;10.90;;;6.57;;
44110;SDS011;29774;52.664;5.074;2022-10-04T04:57:30;9.95;;;7.03;;
44110;SDS011;29774;52.664;5.074;2022-10-04T04:59:58;12.02;;;6.82;;
44110;SDS011;29774;52.664;5.074;2022-10-04T05:02:26;10.98;;;7.97;;
44110;SDS011;29774;52.664;5.074;2022-10-04T05:11:25;13.20;;;7.80;;
44110;SDS011;29774;52.664;5.074;2022-10-04T05:13:31;13.60;;;7.93;;
44110;SDS011;29774;52.664;5.074;2022-10-04T05:16:39;14.60;;;7.45;;
44110;SDS011;29774;52.664;5.074;2022-10-04T05:19:08;11.60;;;8.15;;
44110;SDS011;29774;52.664;5.074;2022-10-04T05:21:49;10.65;;;7.57;;
44110;SDS011;29774;52.664;5.074;2022-10-04T05:24:51;9.80;;;7.13;;
44110;SDS011;29774;52.664;5.074;2022-10-04T05:27:14;11.75;;;7.80;;
44110;SDS011;29774;52.664;5.074;2022-10-04T05:30:01;10.00;;;7.80;;
44110;SDS011;29774;52.664;5.074;2022-10-04T05:35:21;10.27;;;6.47;;
44110;SDS011;29774;52.664;5.074;2022-10-04T05:37:51;13.43;;;7.13;;
44110;SDS011;29774;52.664;5.074;2022-10-04T05:43:50;11.30;;;7.80;;
44110;SDS011;29774;52.664;5.074;2022-10-04T05:48:38;11.25;;;7.13;;
44110;SDS011;29774;52.664;5.074;2022-10-04T05:51:19;10.20;;;7.60;;
44110;SDS011;29774;52.664;5.074;2022-10-04T05:53:45;11.45;;;8.32;;
44110;SDS011;29774;52.664;5.074;2022-10-04T06:04:50;10.13;;;6.20;;
44110;SDS011;29774;52.664;5.074;2022-10-04T06:10:08;9.98;;;5.80;;
44110;SDS011;29774;52.664;5.074;2022-10-04T06:21:20;11.18;;;6.70;;
44110;SDS011;29774;52.664;5.074;2022-10-04T06:26:27;11.00;;;6.60;;
44110;SDS011;29774;52.664;5.074;2022-10-04T06:28:59;12.13;;;8.20;;
44110;SDS011;29774;52.664;5.074;2022-10-04T06:34:40;9.27;;;5.95;;
44110;SDS011;29774;52.664;5.074;2022-10-04T06:37:20;9.70;;;5.75;;
44110;SDS011;29774;52.664;5.074;2022-10-04T07:02:26;7.97;;;5.07;;
44110;SDS011;29774;52.664;5.074;2022-10-04T07:05:03;7.07;;;5.05;;
44110;SDS011;29774;52.664;5.074;2022-10-04T07:07:50;8.85;;;5.15;;
44110;SDS011;29774;52.664;5.074;2022-10-04T07:10:44;8.95;;;4.50;;
44110;SDS011;29774;52.664;5.074;2022-10-04T07:13:30;7.03;;;5.05;;
44110;SDS011;29774;52.664;5.074;2022-10-04T07:16:50;8.35;;;5.43;;
44110;SDS011;29774;52.664;5.074;2022-10-04T07:21:47;6.63;;;4.28;;
44110;SDS011;29774;52.664;5.074;2022-10-04T07:27:12;12.85;;;7.22;;
44110;SDS011;29774;52.664;5.074;2022-10-04T07:29:42;8.10;;;6.47;;
44110;SDS011;29774;52.664;5.074;2022-10-04T07:32:14;5.90;;;4.78;;
44110;SDS011;29774;52.664;5.074;2022-10-04T07:37:33;6.13;;;4.95;;
44110;SDS011;29774;52.664;5.074;2022-10-04T07:40:27;6.70;;;4.55;;
44110;SDS011;29774;52.664;5.074;2022-10-04T07:43:04;6.40;;;4.57;;
44110;SDS011;29774;52.664;5.074;2022-10-04T07:45:36;9.50;;;6.18;;
44110;SDS011;29774;52.664;5.074;2022-10-04T07:48:09;8.13;;;6.22;;
44110;SDS011;29774;52.664;5.074;2022-10-04T07:53:10;8.45;;;4.80;;
44110;SDS011;29774;52.664;5.074;2022-10-04T07:56:07;10.05;;;6.22;;
44110;SDS011;29774;52.664;5.074;2022-10-04T08:01:20;11.43;;;7.03;;
44110;SDS011;29774;52.664;5.074;2022-10-04T08:07:11;16.33;;;8.50;;
44110;SDS011;29774;52.664;5.074;2022-10-04T08:09:50;5.30;;;4.53;;
44110;SDS011;29774;52.664;5.074;2022-10-04T08:15:35;12.00;;;6.68;;
44110;SDS011;29774;52.664;5.074;2022-10-04T08:20:59;5.10;;;3.80;;
44110;SDS011;29774;52.664;5.074;2022-10-04T08:23:50;5.45;;;4.43;;
44110;SDS011;29774;52.664;5.074;2022-10-04T08:32:25;4.40;;;3.78;;
44110;SDS011;29774;52.664;5.074;2022-10-04T08:40:40;6.72;;;3.47;;
44110;SDS011;29774;52.664;5.074;2022-10-04T08:52:09;5.80;;;4.10;;
44110;SDS011;29774;52.664;5.074;2022-10-04T08:57:58;7.20;;;5.45;;
44110;SDS011;29774;52.664;5.074;2022-10-04T09:00:44;6.78;;;4.82;;
44110;SDS011;29774;52.664;5.074;2022-10-04T09:06:31;5.97;;;4.10;;
44110;SDS011;29774;52.664;5.074;2022-10-04T09:11:49;5.60;;;3.97;;
44110;SDS011;29774;52.664;5.074;2022-10-04T09:25:38;29.48;;;7.05;;
